Time,TemperatureF,DewpointF,PressureIn,WindDirection,WindDirectionDegrees,WindSpeedMPH,WindSpeedGustMPH,Humidity,HourlyPrecipIn,Conditions,Clouds,dailyrainin,SolarRadiationWatts/m^2,SoftwareType,DateUTC
2013-10-16 00:01:00,59.1,50.8,30.11,SSW,193,2.8,9.0,74,0.00,RA,,0.00,0.0,WeatherDisplay:10.37,2013-10-16 04:01:00,
2013-10-16 00:02:00,59.1,50.8,30.11,South,190,3.3,9.2,74,0.00,RA,,0.00,0.0,WeatherDisplay:10.37,2013-10-16 04:02:00,
2013-10-16 00:07:00,58.9,50.6,30.11,SSW,196,2.9,4.6,74,0.00,RA,,0.00,0.0,WeatherDisplay:10.37,2013-10-16 04:07:00,
2013-10-16 00:12:00,58.8,50.5,30.11,South,191,4.2,5.8,74,0.00,CLR,,0.00,0.0,WeatherDisplay:10.37,2013-10-16 04:12:00,
2013-10-16 00:17:00,58.7,50.4,30.11,South,185,1.0,8.1,74,0.00,CLR,,0.00,0.0,WeatherDisplay:10.37,2013-10-16 04:17:00,
2013-10-16 00:22:00,58.5,49.9,30.11,South,188,4.1,6.9,73,0.00,CLR,,0.00,0.0,WeatherDisplay:10.37,2013-10-16 04:22:00,
2013-10-16 00:27:00,58.4,49.8,30.11,South,188,2.0,5.8,73,0.00,CLR,,0.00,0.0,WeatherDisplay:10.37,2013-10-16 04:27:00,
2013-10-16 00:32:00,58.2,49.6,30.11,South,188,0.9,2.3,73,0.00,CLR,,0.00,0.0,WeatherDisplay:10.37,2013-10-16 04:32:00,
2013-10-16 00:37:00,58.0,49.4,30.11,South,172,1.6,5.0,73,0.00,CLR,,0.00,0.0,WeatherDisplay:10.37,2013-10-16 04:37:00,
2013-10-16 00:42:00,57.8,49.2,30.11,SSE,166,0.0,3.5,73,0.00,CLR,,0.00,0.0,WeatherDisplay:10.37,2013-10-16 04:42:00,
2013-10-16 00:47:00,57.7,49.1,30.11,SSE,168,1.9,3.5,73,0.00,CLR,,0.00,0.0,WeatherDisplay:10.37,2013-10-16 04:47:00,
2013-10-16 00:52:00,57.5,48.9,30.11,South,171,1.7,3.5,73,0.00,CLR,,0.00,0.0,WeatherDisplay:10.37,2013-10-16 04:52:00,
2013-10-16 00:57:00,57.3,48.7,30.11,South,171,0.5,1.0,73,0.00,CLR,,0.00,0.0,WeatherDisplay:10.37,2013-10-16 04:57:00,
2013-10-16 01:02:00,57.0,48.8,30.11,South,174,1.8,4.6,74,0.00,CLR,,0.00,0.0,WeatherDisplay:10.37,2013-10-16 05:02:00,
2013-10-16 01:07:00,56.8,48.6,30.11,South,175,1.8,3.5,74,0.00,CLR,,0.00,0.0,WeatherDisplay:10.37,2013-10-16 05:07:00,
2013-10-16 01:12:00,56.7,48.5,30.11,South,181,2.2,3.5,74,0.00,CLR,,0.00,0.0,WeatherDisplay:10.37,2013-10-16 05:12:00,
2013-10-16 01:17:00,56.6,48.4,30.11,South,182,2.1,3.5,74,0.00,CLR,,0.00,0.0,WeatherDisplay:10.37,2013-10-16 05:17:00,
2013-10-16 01:22:00,56.6,48.4,30.12,South,186,1.3,3.0,74,0.00,CLR,,0.00,0.0,WeatherDisplay:10.37,2013-10-16 05:22:00,
2013-10-16 01:27:00,56.4,48.2,30.12,South,186,0.8,2.3,74,0.00,CLR,,0.00,0.0,WeatherDisplay:10.37,2013-10-16 05:27:00,
2013-10-16 01:32:00,56.4,48.2,30.12,South,184,1.9,5.8,74,0.00,CLR,,0.00,0.0,WeatherDisplay:10.37,2013-10-16 05:32:00,
2013-10-16 01:37:00,56.3,48.1,30.11,South,179,0.2,3.5,74,0.00,CLR,,0.00,0.0,WeatherDisplay:10.37,2013-10-16 05:37:00,
2013-10-16 01:42:00,56.2,48.0,30.11,South,180,2.1,4.6,74,0.00,CLR,,0.00,0.0,WeatherDisplay:10.37,2013-10-16 05:42:00,
2013-10-16 01:47:00,56.0,47.8,30.11,South,180,2.4,7.0,74,0.00,CLR,,0.00,0.0,WeatherDisplay:10.37,2013-10-16 05:47:00,
2013-10-16 01:52:00,55.9,47.7,30.12,South,189,1.2,3.5,74,0.00,CLR,,0.00,0.0,WeatherDisplay:10.37,2013-10-16 05:52:00,
2013-10-16 01:57:00,55.7,47.5,30.12,South,187,0.0,3.5,74,0.00,CLR,,0.00,0.0,WeatherDisplay:10.37,2013-10-16 05:57:00,
2013-10-16 02:02:00,55.5,47.3,30.12,South,187,0.0,1.2,74,0.00,CLR,,0.00,0.0,WeatherDisplay:10.37,2013-10-16 06:02:00,
2013-10-16 02:07:00,55.3,47.2,30.12,South,187,0.0,0.0,74,0.00,CLR,,0.00,0.0,WeatherDisplay:10.37,2013-10-16 06:07:00,
2013-10-16 02:12:00,55.2,47.4,30.12,South,187,1.6,2.3,75,0.00,CLR,,0.00,0.0,WeatherDisplay:10.37,2013-10-16 06:12:00,
2013-10-16 02:17:00,55.0,47.2,30.12,South,187,0.5,3.0,75,0.00,CLR,,0.00,0.0,WeatherDisplay:10.37,2013-10-16 06:17:00,
2013-10-16 02:22:00,54.7,46.9,30.12,South,187,1.3,3.5,75,0.00,CLR,,0.00,0.0,WeatherDisplay:10.37,2013-10-16 06:22:00,
2013-10-16 02:27:00,54.5,47.1,30.12,South,187,2.2,3.5,76,0.00,CLR,,0.00,0.0,WeatherDisplay:10.37,2013-10-16 06:27:00,
2013-10-16 02:32:00,54.3,46.9,30.11,South,186,1.9,3.5,76,0.00,CLR,,0.00,0.0,WeatherDisplay:10.37,2013-10-16 06:32:00,
2013-10-16 02:37:00,54.2,46.8,30.11,South,185,1.9,3.5,76,0.00,CLR,,0.00,0.0,WeatherDisplay:10.37,2013-10-16 06:37:00,
2013-10-16 02:42:00,54.1,46.7,30.11,South,185,2.9,4.0,76,0.00,CLR,,0.00,0.0,WeatherDisplay:10.37,2013-10-16 06:42:00,
2013-10-16 02:47:00,53.9,46.5,30.11,South,186,3.8,4.6,76,0.00,CLR,,0.00,0.0,WeatherDisplay:10.37,2013-10-16 06:47:00,
2013-10-16 02:52:00,53.9,46.5,30.12,South,186,3.0,4.0,76,0.00,CLR,,0.00,0.0,WeatherDisplay:10.37,2013-10-16 06:52:00,
2013-10-16 02:58:00,53.8,46.4,30.11,South,186,2.3,3.0,76,0.00,CLR,,0.00,0.0,WeatherDisplay:10.37,2013-10-16 06:58:00,
2013-10-16 03:03:00,53.7,46.3,30.11,South,185,0.3,2.3,76,0.00,CLR,,0.00,0.0,WeatherDisplay:10.37,2013-10-16 07:03:00,
2013-10-16 03:08:00,53.4,46.4,30.11,South,185,0.1,2.0,77,0.00,CLR,,0.00,0.0,WeatherDisplay:10.37,2013-10-16 07:08:00,
2013-10-16 03:13:00,53.0,46.0,30.11,South,185,0.1,0.0,77,0.00,CLR,,0.00,0.0,WeatherDisplay:10.37,2013-10-16 07:13:00,
2013-10-16 03:17:00,52.5,46.2,30.10,South,179,2.6,3.5,79,0.00,CLR,,0.00,0.0,WeatherDisplay:10.37,2013-10-16 07:17:00,
2013-10-16 03:23:00,52.0,46.3,30.11,South,179,0.2,0.0,81,0.00,CLR,,0.00,0.0,WeatherDisplay:10.37,2013-10-16 07:23:00,
2013-10-16 03:28:00,51.7,46.1,30.11,South,179,0.6,0.0,81,0.00,CLR,,0.00,0.0,WeatherDisplay:10.37,2013-10-16 07:28:00,
2013-10-16 03:33:00,51.6,46.0,30.10,South,179,0.0,0.0,81,0.00,CLR,,0.00,0.0,WeatherDisplay:10.37,2013-10-16 07:33:00,
2013-10-16 03:38:00,51.7,46.1,30.10,South,179,0.0,1.2,81,0.00,CLR,,0.00,0.0,WeatherDisplay:10.37,2013-10-16 07:38:00,
2013-10-16 03:43:00,51.7,46.1,30.10,South,176,0.1,1.2,81,0.00,CLR,,0.00,0.0,WeatherDisplay:10.37,2013-10-16 07:43:00,
2013-10-16 03:48:00,51.8,46.2,30.09,South,174,1.7,4.6,81,0.00,CLR,,0.00,0.0,WeatherDisplay:10.37,2013-10-16 07:48:00,
2013-10-16 03:53:00,51.9,46.3,30.09,South,173,0.1,2.3,81,0.00,CLR,,0.00,0.0,WeatherDisplay:10.37,2013-10-16 07:53:00,
2013-10-16 03:58:00,52.1,46.1,30.09,South,174,0.1,3.5,80,0.00,CLR,,0.00,0.0,WeatherDisplay:10.37,2013-10-16 07:58:00,
2013-10-16 04:03:00,52.2,46.2,30.09,South,175,1.5,1.5,80,0.00,CLR,,0.00,0.0,WeatherDisplay:10.37,2013-10-16 08:03:00,
2013-10-16 04:08:00,52.4,46.4,30.09,South,176,0.2,2.3,80,0.00,CLR,,0.00,0.0,WeatherDisplay:10.37,2013-10-16 08:08:00,
2013-10-16 04:13:00,52.5,46.2,30.09,South,175,0.0,0.0,79,0.00,CLR,,0.00,0.0,WeatherDisplay:10.37,2013-10-16 08:13:00,
2013-10-16 04:18:00,52.5,46.2,30.09,South,175,0.4,3.5,79,0.00,CLR,,0.00,0.0,WeatherDisplay:10.37,2013-10-16 08:18:00,
2013-10-16 04:23:00,52.5,46.2,30.09,South,176,0.1,1.2,79,0.00,CLR,,0.00,0.0,WeatherDisplay:10.37,2013-10-16 08:23:00,
2013-10-16 04:28:00,52.5,46.2,30.08,South,176,0.0,0.0,79,0.00,CLR,,0.00,0.0,WeatherDisplay:10.37,2013-10-16 08:28:00,
2013-10-16 04:33:00,52.5,46.5,30.09,South,176,0.5,3.5,80,0.00,CLR,,0.00,0.0,WeatherDisplay:10.37,2013-10-16 08:33:00,
2013-10-16 04:38:00,52.4,46.7,30.09,South,176,0.1,1.2,81,0.00,CLR,,0.00,0.0,WeatherDisplay:10.37,2013-10-16 08:38:00,
2013-10-16 04:43:00,52.1,46.8,30.09,South,176,2.3,4.6,82,0.00,CLR,,0.00,0.0,WeatherDisplay:10.37,2013-10-16 08:43:00,
2013-10-16 04:48:00,51.7,46.1,30.09,South,176,0.0,0.0,81,0.00,CLR,,0.00,0.0,WeatherDisplay:10.37,2013-10-16 08:48:00,
2013-10-16 04:53:00,51.7,46.1,30.09,South,176,0.0,0.0,81,0.00,CLR,,0.00,0.0,WeatherDisplay:10.37,2013-10-16 08:53:00,
2013-10-16 04:58:00,51.7,46.1,30.09,South,176,0.0,1.2,81,0.00,CLR,,0.00,0.0,WeatherDisplay:10.37,2013-10-16 08:58:00,
2013-10-16 05:03:00,51.7,46.1,30.09,South,176,0.0,0.0,81,0.00,CLR,,0.00,0.0,WeatherDisplay:10.37,2013-10-16 09:03:00,
2013-10-16 05:08:00,51.8,46.2,30.09,South,176,0.0,0.0,81,0.00,CLR,,0.00,0.0,WeatherDisplay:10.37,2013-10-16 09:08:00,
2013-10-16 05:13:00,51.8,46.2,30.09,South,176,0.0,0.0,81,0.00,CLR,,0.00,0.0,WeatherDisplay:10.37,2013-10-16 09:13:00,
2013-10-16 05:18:00,51.8,46.8,30.09,South,176,0.0,0.0,83,0.00,CLR,,0.00,0.0,WeatherDisplay:10.37,2013-10-16 09:18:00,
2013-10-16 05:23:00,51.7,46.7,30.09,South,176,0.0,0.0,83,0.00,CLR,,0.00,0.0,WeatherDisplay:10.37,2013-10-16 09:23:00,
2013-10-16 05:28:00,51.6,46.3,30.08,South,176,0.0,0.0,82,0.00,CLR,,0.00,0.0,WeatherDisplay:10.37,2013-10-16 09:28:00,
2013-10-16 05:33:00,51.5,46.2,30.08,South,176,0.0,0.0,82,0.00,CLR,,0.00,0.0,WeatherDisplay:10.37,2013-10-16 09:33:00,
2013-10-16 05:38:00,51.3,46.3,30.09,South,176,0.0,0.0,83,0.00,CLR,,0.00,0.0,WeatherDisplay:10.37,2013-10-16 09:38:00,
2013-10-16 05:43:00,51.0,46.0,30.08,South,176,0.0,1.2,83,0.00,CLR,,0.00,0.0,WeatherDisplay:10.37,2013-10-16 09:43:00,
2013-10-16 05:48:00,50.6,46.3,30.08,South,176,0.3,1.2,85,0.00,CLR,,0.00,0.0,WeatherDisplay:10.37,2013-10-16 09:48:00,
2013-10-16 05:53:00,50.3,46.0,30.08,South,176,0.0,1.2,85,0.00,CLR,,0.00,0.0,WeatherDisplay:10.37,2013-10-16 09:53:00,
2013-10-16 05:58:00,50.1,46.1,30.08,South,176,0.3,2.3,86,0.00,CLR,,0.00,0.0,WeatherDisplay:10.37,2013-10-16 09:58:00,
2013-10-16 06:03:00,50.0,46.0,30.09,South,176,0.7,2.3,86,0.00,CLR,,0.00,0.0,WeatherDisplay:10.37,2013-10-16 10:03:00,
2013-10-16 06:08:00,49.9,46.2,30.09,South,176,0.0,0.0,87,0.00,CLR,,0.00,0.0,WeatherDisplay:10.37,2013-10-16 10:08:00,
2013-10-16 06:13:00,49.9,46.2,30.09,South,176,0.0,0.0,87,0.00,CLR,,0.00,0.0,WeatherDisplay:10.37,2013-10-16 10:13:00,
2013-10-16 06:18:00,49.9,46.2,30.09,South,175,0.0,0.0,87,0.00,CLR,,0.00,0.0,WeatherDisplay:10.37,2013-10-16 10:18:00,
2013-10-16 06:23:00,49.8,46.1,30.09,South,175,0.0,0.0,87,0.00,CLR,,0.00,0.0,WeatherDisplay:10.37,2013-10-16 10:23:00,
2013-10-16 06:28:00,49.8,46.1,30.09,South,176,0.0,0.0,87,0.00,CLR,,0.00,0.0,WeatherDisplay:10.37,2013-10-16 10:28:00,
2013-10-16 06:33:00,49.7,46.3,30.09,South,176,0.0,0.0,88,0.00,CLR,,0.00,0.0,WeatherDisplay:10.37,2013-10-16 10:33:00,
2013-10-16 06:38:00,49.7,46.3,30.08,South,175,0.0,0.0,88,0.00,CLR,,0.00,0.0,WeatherDisplay:10.37,2013-10-16 10:38:00,
2013-10-16 06:43:00,49.7,46.3,30.08,South,176,0.0,0.0,88,0.00,CLR,,0.00,0.0,WeatherDisplay:10.37,2013-10-16 10:43:00,
2013-10-16 06:48:00,49.8,46.7,30.08,South,175,0.4,2.3,89,0.00,CLR,,0.00,0.0,WeatherDisplay:10.37,2013-10-16 10:48:00,
2013-10-16 06:53:00,50.3,47.2,30.07,South,175,1.3,3.5,89,0.00,CLR,,0.00,0.0,WeatherDisplay:10.37,2013-10-16 10:53:00,
2013-10-16 06:58:00,50.8,47.7,30.07,South,177,2.5,6.0,89,0.00,CLR,,0.00,0.0,WeatherDisplay:10.37,2013-10-16 10:58:00,
2013-10-16 07:03:00,51.3,47.9,30.07,South,176,2.0,4.6,88,0.00,CLR,,0.00,0.0,WeatherDisplay:10.37,2013-10-16 11:03:00,
2013-10-16 07:08:00,51.8,48.1,30.07,South,175,1.1,3.5,87,0.00,CLR,,0.00,0.0,WeatherDisplay:10.37,2013-10-16 11:08:00,
2013-10-16 07:13:00,52.3,48.2,30.07,South,189,2.5,4.6,86,0.00,CLR,,0.00,0.0,WeatherDisplay:10.37,2013-10-16 11:13:00,
2013-10-16 07:18:00,52.7,48.6,30.06,South,182,0.3,1.2,86,0.00,CLR,,0.00,0.0,WeatherDisplay:10.37,2013-10-16 11:18:00,
2013-10-16 07:23:00,52.6,47.9,30.06,South,182,1.4,3.5,84,0.00,CLR,,0.00,5.7,WeatherDisplay:10.37,2013-10-16 11:23:00,
2013-10-16 07:28:00,52.3,47.9,30.06,South,182,1.0,3.5,85,0.00,CLR,,0.00,10.2,WeatherDisplay:10.37,2013-10-16 11:28:00,
2013-10-16 07:33:00,52.2,48.1,30.06,South,181,1.2,3.5,86,0.00,CLR,,0.00,12.4,WeatherDisplay:10.37,2013-10-16 11:33:00,
2013-10-16 07:38:00,52.1,48.0,30.06,South,180,0.0,1.2,86,0.00,CLR,,0.00,15.8,WeatherDisplay:10.37,2013-10-16 11:38:00,
2013-10-16 07:43:00,51.9,47.8,30.06,South,180,0.1,1.2,86,0.00,CLR,,0.00,26.0,WeatherDisplay:10.37,2013-10-16 11:43:00,
2013-10-16 07:48:00,52.0,47.9,30.06,South,180,0.0,1.2,86,0.00,CLR,,0.00,29.4,WeatherDisplay:10.37,2013-10-16 11:48:00,
2013-10-16 07:53:00,52.3,48.2,30.06,South,180,0.0,0.0,86,0.00,CLR,,0.00,33.9,WeatherDisplay:10.37,2013-10-16 11:53:00,
2013-10-16 07:58:00,52.3,48.2,30.06,South,180,0.0,0.0,86,0.00,CLR,,0.00,44.1,WeatherDisplay:10.37,2013-10-16 11:58:00,
2013-10-16 08:03:00,52.3,48.2,30.07,South,180,1.3,2.3,86,0.00,CLR,,0.00,41.8,WeatherDisplay:10.37,2013-10-16 12:03:00,
2013-10-16 08:08:00,52.2,48.4,30.06,South,180,0.0,0.0,87,0.00,CLR,,0.00,31.6,WeatherDisplay:10.37,2013-10-16 12:08:00,
2013-10-16 08:13:00,52.3,48.5,30.06,South,180,0.0,0.0,87,0.00,CLR,,0.00,39.5,WeatherDisplay:10.37,2013-10-16 12:13:00,
2013-10-16 08:18:00,52.3,48.5,30.06,South,180,0.0,0.0,87,0.00,CLR,,0.00,44.1,WeatherDisplay:10.37,2013-10-16 12:18:00,
2013-10-16 08:23:00,52.3,48.5,30.06,South,180,0.0,0.0,87,0.00,CLR,,0.00,47.5,WeatherDisplay:10.37,2013-10-16 12:23:00,
2013-10-16 08:28:00,52.5,48.7,30.06,South,180,0.5,2.3,87,0.00,CLR,,0.00,67.8,WeatherDisplay:10.37,2013-10-16 12:28:00,
2013-10-16 08:33:00,52.7,49.2,30.06,South,180,0.0,0.0,88,0.00,CLR,,0.00,81.4,WeatherDisplay:10.37,2013-10-16 12:33:00,
2013-10-16 08:38:00,53.3,49.5,30.06,South,180,0.0,1.2,87,0.00,CLR,,0.00,75.7,WeatherDisplay:10.37,2013-10-16 12:38:00,
2013-10-16 08:43:00,54.1,49.7,30.06,South,180,1.6,2.3,85,0.00,CLR,,0.00,75.7,WeatherDisplay:10.37,2013-10-16 12:43:00,
2013-10-16 08:48:00,54.8,50.1,30.06,South,180,0.4,2.3,84,0.00,CLR,,0.00,83.6,WeatherDisplay:10.37,2013-10-16 12:48:00,
2013-10-16 08:53:00,55.1,50.0,30.07,South,180,0.6,2.3,83,0.00,CLR,,0.00,87.0,WeatherDisplay:10.37,2013-10-16 12:53:00,
2013-10-16 08:58:00,55.2,49.8,30.06,South,180,0.0,1.2,82,0.00,CLR,,0.00,85.9,WeatherDisplay:10.37,2013-10-16 12:58:00,
2013-10-16 09:03:00,55.4,50.3,30.07,South,180,0.0,0.0,83,0.00,CLR,,0.00,97.2,WeatherDisplay:10.37,2013-10-16 13:03:00,
2013-10-16 09:08:00,55.5,50.4,30.07,South,180,0.0,1.2,83,0.00,CLR,,0.00,93.8,WeatherDisplay:10.37,2013-10-16 13:08:00,
2013-10-16 09:13:00,55.6,50.5,30.07,South,180,2.0,2.3,83,0.00,CLR,,0.00,91.5,WeatherDisplay:10.37,2013-10-16 13:13:00,
2013-10-16 09:18:00,55.4,50.0,30.07,South,180,0.0,0.0,82,0.00,CLR,,0.00,107.3,WeatherDisplay:10.37,2013-10-16 13:18:00,
2013-10-16 09:24:00,55.3,50.2,30.07,South,180,0.1,0.0,83,0.00,CLR,,0.00,110.7,WeatherDisplay:10.37,2013-10-16 13:24:00,
2013-10-16 09:29:00,55.3,50.2,30.07,South,180,0.0,0.0,83,0.00,CLR,,0.00,107.3,WeatherDisplay:10.37,2013-10-16 13:29:00,
2013-10-16 09:34:00,55.4,50.3,30.06,South,180,0.7,2.3,83,0.00,CLR,,0.00,109.6,WeatherDisplay:10.37,2013-10-16 13:34:00,
2013-10-16 09:39:00,55.6,50.5,30.06,South,180,2.2,3.0,83,0.00,CLR,,0.00,109.6,WeatherDisplay:10.37,2013-10-16 13:39:00,
2013-10-16 09:44:00,55.7,50.6,30.06,South,180,0.1,1.2,83,0.00,CLR,,0.00,109.6,WeatherDisplay:10.37,2013-10-16 13:44:00,
2013-10-16 09:49:00,55.9,50.5,30.06,South,180,0.4,3.5,82,0.00,CLR,,0.00,102.8,WeatherDisplay:10.37,2013-10-16 13:49:00,
2013-10-16 09:54:00,56.1,50.3,30.06,South,180,0.1,1.2,81,0.00,CLR,,0.00,102.8,WeatherDisplay:10.37,2013-10-16 13:54:00,
2013-10-16 09:59:00,56.3,50.2,30.06,South,180,0.8,3.5,80,0.00,CLR,,0.00,113.0,WeatherDisplay:10.37,2013-10-16 13:59:00,
2013-10-16 10:04:00,56.5,50.4,30.05,South,180,0.5,2.3,80,0.00,CLR,,0.00,120.9,WeatherDisplay:10.37,2013-10-16 14:04:00,
2013-10-16 10:09:00,56.7,50.6,30.05,South,178,1.0,3.5,80,0.00,CLR,,0.00,141.3,WeatherDisplay:10.37,2013-10-16 14:09:00,
2013-10-16 10:14:00,57.0,50.5,30.04,South,184,4.7,8.1,79,0.00,CLR,,0.00,154.8,WeatherDisplay:10.37,2013-10-16 14:14:00,
2013-10-16 10:19:00,57.2,50.4,30.04,South,184,0.3,3.5,78,0.00,CLR,,0.00,165.0,WeatherDisplay:10.37,2013-10-16 14:19:00,
2013-10-16 10:24:00,57.5,50.7,30.04,South,180,2.4,4.6,78,0.00,CLR,,0.00,172.9,WeatherDisplay:10.37,2013-10-16 14:24:00,
2013-10-16 10:29:00,57.8,51.0,30.04,South,183,0.3,3.5,78,0.00,CLR,,0.00,201.1,WeatherDisplay:10.37,2013-10-16 14:29:00,
2013-10-16 10:34:00,58.2,51.4,30.04,South,186,2.8,8.1,78,0.00,CLR,,0.00,224.9,WeatherDisplay:10.37,2013-10-16 14:34:00,
2013-10-16 10:39:00,58.6,51.4,30.04,SSW,198,5.2,6.9,77,0.00,CLR,,0.00,256.5,WeatherDisplay:10.37,2013-10-16 14:39:00,
2013-10-16 10:44:00,59.1,51.9,30.04,South,186,4.1,7.0,77,0.00,CLR,,0.00,282.5,WeatherDisplay:10.37,2013-10-16 14:44:00,
2013-10-16 10:49:00,59.5,52.3,30.04,SSW,196,3.5,9.2,77,0.00,CLR,,0.00,244.1,WeatherDisplay:10.37,2013-10-16 14:49:00,
2013-10-16 10:54:00,59.8,52.2,30.04,SSW,205,2.3,4.6,76,0.00,CLR,,0.00,210.2,WeatherDisplay:10.37,2013-10-16 14:54:00,
2013-10-16 10:59:00,59.9,52.0,30.04,SSW,202,5.1,8.1,75,0.00,CLR,,0.00,212.4,WeatherDisplay:10.37,2013-10-16 14:59:00,
2013-10-16 11:04:00,59.9,52.3,30.03,South,173,4.7,12.0,76,0.00,CLR,,0.00,248.6,WeatherDisplay:10.37,2013-10-16 15:04:00,
2013-10-16 11:09:00,60.0,52.4,30.03,SSE,165,4.2,8.1,76,0.00,CLR,,0.00,291.5,WeatherDisplay:10.37,2013-10-16 15:09:00,
2013-10-16 11:14:00,60.3,52.7,30.03,South,189,2.3,6.9,76,0.00,CLR,,0.00,453.1,WeatherDisplay:10.37,2013-10-16 15:14:00,
2013-10-16 11:19:00,60.9,52.9,30.03,South,182,5.6,11.5,75,0.00,CLR,,0.00,413.6,WeatherDisplay:10.37,2013-10-16 15:19:00,
2013-10-16 11:24:00,61.3,52.9,30.03,South,182,7.1,11.5,74,0.00,CLR,,0.00,448.6,WeatherDisplay:10.37,2013-10-16 15:24:00,
2013-10-16 11:29:00,61.6,52.9,30.03,SSW,200,2.0,4.6,73,0.00,CLR,,0.00,464.4,WeatherDisplay:10.37,2013-10-16 15:29:00,
2013-10-16 11:34:00,62.0,53.2,30.02,SSW,200,2.4,11.5,73,0.00,CLR,,0.00,311.9,WeatherDisplay:10.37,2013-10-16 15:34:00,
2013-10-16 11:39:00,61.9,52.8,30.02,South,188,2.5,5.8,72,0.00,CLR,,0.00,290.4,WeatherDisplay:10.37,2013-10-16 15:39:00,
2013-10-16 11:44:00,61.6,52.5,30.02,South,181,2.8,8.1,72,0.00,CLR,,0.00,240.7,WeatherDisplay:10.37,2013-10-16 15:44:00,
2013-10-16 11:49:00,61.2,52.5,30.02,South,191,2.2,5.8,73,0.00,CLR,,0.00,198.9,WeatherDisplay:10.37,2013-10-16 15:49:00,
2013-10-16 11:54:00,61.0,52.7,30.02,SSW,195,6.1,11.5,74,0.00,CLR,,0.00,204.5,WeatherDisplay:10.37,2013-10-16 15:54:00,
2013-10-16 11:59:00,60.9,52.2,30.02,South,190,1.9,5.0,73,0.00,CLR,,0.00,241.8,WeatherDisplay:10.37,2013-10-16 15:59:00,
2013-10-16 12:04:00,61.0,53.0,30.02,SSW,194,2.8,4.0,75,0.00,CLR,,0.00,272.3,WeatherDisplay:10.37,2013-10-16 16:04:00,
2013-10-16 12:09:00,61.1,52.7,30.01,SSW,196,5.1,9.2,74,0.00,CLR,,0.00,299.4,WeatherDisplay:10.37,2013-10-16 16:09:00,
2013-10-16 12:14:00,61.3,52.9,30.01,South,173,4.8,11.5,74,0.00,CLR,,0.00,395.5,WeatherDisplay:10.37,2013-10-16 16:14:00,
2013-10-16 12:19:00,61.5,53.1,30.01,SSW,202,2.5,5.0,74,0.00,CLR,,0.00,311.9,WeatherDisplay:10.37,2013-10-16 16:19:00,
2013-10-16 12:24:00,61.7,53.0,30.00,South,188,3.8,6.9,73,0.00,CLR,,0.00,272.3,WeatherDisplay:10.37,2013-10-16 16:24:00,
2013-10-16 12:29:00,61.7,53.0,30.00,SSW,206,2.3,4.0,73,0.00,CLR,,0.00,228.3,WeatherDisplay:10.37,2013-10-16 16:29:00,
2013-10-16 12:34:00,61.7,53.0,30.01,SSW,198,3.1,5.0,73,0.01,RA,,0.01,218.1,WeatherDisplay:10.37,2013-10-16 16:34:00,
2013-10-16 12:39:00,61.6,52.9,30.00,SW,233,2.0,3.5,73,0.01,RA,,0.01,194.4,WeatherDisplay:10.37,2013-10-16 16:39:00,
2013-10-16 12:44:00,61.5,52.8,30.00,South,182,2.9,8.0,73,0.01,CLR,,0.01,232.8,WeatherDisplay:10.37,2013-10-16 16:44:00,
2013-10-16 12:49:00,61.5,53.1,30.00,SSW,192,3.8,5.8,74,0.01,CLR,,0.01,228.3,WeatherDisplay:10.37,2013-10-16 16:49:00,
2013-10-16 12:54:00,61.6,53.6,29.99,SSW,192,4.7,9.2,75,0.01,CLR,,0.01,233.9,WeatherDisplay:10.37,2013-10-16 16:54:00,
2013-10-16 12:59:00,61.8,53.8,30.00,SSW,196,1.2,3.5,75,0.01,CLR,,0.01,278.0,WeatherDisplay:10.37,2013-10-16 16:59:00,
2013-10-16 13:04:00,61.9,53.5,30.00,SSW,196,0.0,1.2,74,0.01,CLR,,0.01,232.8,WeatherDisplay:10.37,2013-10-16 17:04:00,
2013-10-16 13:09:00,62.0,53.6,29.99,SSW,196,1.7,2.3,74,0.01,CLR,,0.01,202.3,WeatherDisplay:10.37,2013-10-16 17:09:00,
2013-10-16 13:14:00,62.0,54.0,29.99,SW,221,3.1,3.5,75,0.01,CLR,,0.01,172.9,WeatherDisplay:10.37,2013-10-16 17:14:00,
2013-10-16 13:19:00,62.0,54.0,29.99,SW,224,0.0,2.3,75,0.01,CLR,,0.01,193.2,WeatherDisplay:10.37,2013-10-16 17:19:00,
2013-10-16 13:24:00,62.0,53.6,29.99,SW,224,1.0,2.3,74,0.01,CLR,,0.01,248.6,WeatherDisplay:10.37,2013-10-16 17:24:00,
2013-10-16 13:29:00,62.0,54.0,29.99,SW,224,0.9,3.5,75,0.01,CLR,,0.01,196.6,WeatherDisplay:10.37,2013-10-16 17:29:00,
2013-10-16 13:34:00,61.9,53.5,29.99,SW,225,0.8,3.5,74,0.00,CLR,,0.01,167.2,WeatherDisplay:10.37,2013-10-16 17:34:00,
2013-10-16 13:39:00,61.9,53.9,29.99,SW,225,0.7,3.5,75,0.00,CLR,,0.01,194.4,WeatherDisplay:10.37,2013-10-16 17:39:00,
2013-10-16 13:44:00,62.0,54.3,29.99,SW,225,0.0,0.0,76,0.00,CLR,,0.01,259.9,WeatherDisplay:10.37,2013-10-16 17:44:00,
2013-10-16 13:49:00,62.2,54.2,29.98,SW,225,2.2,3.5,75,0.00,CLR,,0.01,236.2,WeatherDisplay:10.37,2013-10-16 17:49:00,
2013-10-16 13:54:00,62.4,54.4,29.98,SW,225,0.0,1.2,75,0.00,CLR,,0.01,275.7,WeatherDisplay:10.37,2013-10-16 17:54:00,
2013-10-16 13:59:00,62.6,55.3,29.98,SW,225,0.0,2.3,77,0.00,CLR,,0.01,240.7,WeatherDisplay:10.37,2013-10-16 17:59:00,
2013-10-16 14:04:00,62.7,54.7,29.97,SW,225,0.5,2.0,75,0.00,CLR,,0.01,254.3,WeatherDisplay:10.37,2013-10-16 18:04:00,
2013-10-16 14:09:00,62.7,54.7,29.97,SW,225,0.0,0.0,75,0.00,CLR,,0.01,324.3,WeatherDisplay:10.37,2013-10-16 18:09:00,
2013-10-16 14:14:00,62.9,54.9,29.96,SW,225,0.0,0.0,75,0.00,CLR,,0.01,306.2,WeatherDisplay:10.37,2013-10-16 18:14:00,
2013-10-16 14:19:00,63.2,54.8,29.96,SW,225,0.0,1.2,74,0.00,CLR,,0.01,228.3,WeatherDisplay:10.37,2013-10-16 18:19:00,
2013-10-16 14:24:00,63.4,55.3,29.96,SW,225,1.5,3.5,75,0.00,CLR,,0.01,194.4,WeatherDisplay:10.37,2013-10-16 18:24:00,
2013-10-16 14:27:00,63.4,55.0,29.96,SW,217,3.1,3.5,74,0.00,CLR,,0.01,184.2,WeatherDisplay:10.37,2013-10-16 18:27:00,
2013-10-16 14:32:00,63.5,55.4,29.96,SSW,211,1.4,3.5,75,0.00,CLR,,0.01,175.2,WeatherDisplay:10.37,2013-10-16 18:32:00,
2013-10-16 14:37:00,63.5,55.1,29.96,SSW,198,0.3,2.3,74,0.00,CLR,,0.01,157.1,WeatherDisplay:10.37,2013-10-16 18:37:00,
2013-10-16 14:42:00,63.5,55.1,29.96,SSW,198,0.4,3.5,74,0.00,CLR,,0.01,152.6,WeatherDisplay:10.37,2013-10-16 18:42:00,
2013-10-16 14:47:00,63.6,55.2,29.96,South,187,4.1,8.1,74,0.00,CLR,,0.01,159.3,WeatherDisplay:10.37,2013-10-16 18:47:00,
2013-10-16 14:52:00,63.6,55.2,29.95,South,188,3.8,9.2,74,0.00,CLR,,0.01,176.3,WeatherDisplay:10.37,2013-10-16 18:52:00,
2013-10-16 14:57:00,63.6,55.5,29.95,South,190,0.2,3.0,75,0.00,CLR,,0.01,183.1,WeatherDisplay:10.37,2013-10-16 18:57:00,
2013-10-16 15:02:00,63.6,55.5,29.95,South,190,0.9,3.5,75,0.00,CLR,,0.01,204.5,WeatherDisplay:10.37,2013-10-16 19:02:00,
2013-10-16 15:07:00,63.8,56.1,29.94,South,190,0.7,2.0,76,0.00,CLR,,0.01,183.1,WeatherDisplay:10.37,2013-10-16 19:07:00,
2013-10-16 15:12:00,63.9,55.4,29.94,South,189,0.0,0.0,74,0.00,CLR,,0.01,191.0,WeatherDisplay:10.37,2013-10-16 19:12:00,
2013-10-16 15:17:00,64.1,55.3,29.95,WSW,237,3.3,5.8,73,0.00,CLR,,0.01,233.9,WeatherDisplay:10.37,2013-10-16 19:17:00,
2013-10-16 15:22:00,64.1,54.9,29.95,West,267,4.3,5.8,72,0.00,CLR,,0.01,165.0,WeatherDisplay:10.37,2013-10-16 19:22:00,
2013-10-16 15:27:00,64.0,55.2,29.95,SSW,204,2.7,4.6,73,0.00,CLR,,0.01,159.3,WeatherDisplay:10.37,2013-10-16 19:27:00,
2013-10-16 15:32:00,63.9,55.4,29.95,WSW,249,4.8,5.8,74,0.00,CLR,,0.01,228.3,WeatherDisplay:10.37,2013-10-16 19:32:00,
2013-10-16 15:37:00,63.9,55.4,29.95,WSW,242,2.1,4.6,74,0.00,CLR,,0.01,258.8,WeatherDisplay:10.37,2013-10-16 19:37:00,
2013-10-16 15:42:00,64.0,55.5,29.95,SW,233,2.8,4.6,74,0.00,CLR,,0.01,222.6,WeatherDisplay:10.37,2013-10-16 19:42:00,
2013-10-16 15:47:00,64.0,55.9,29.95,SW,227,3.3,4.6,75,0.00,CLR,,0.01,176.3,WeatherDisplay:10.37,2013-10-16 19:47:00,
2013-10-16 15:52:00,63.9,55.4,29.95,SSW,209,1.9,3.5,74,0.00,CLR,,0.01,160.5,WeatherDisplay:10.37,2013-10-16 19:52:00,
2013-10-16 15:57:00,63.8,55.4,29.94,SSW,196,0.9,3.5,74,0.00,CLR,,0.01,154.8,WeatherDisplay:10.37,2013-10-16 19:57:00,
2013-10-16 16:02:00,63.6,55.2,29.94,South,186,1.5,9.2,74,0.00,CLR,,0.01,168.4,WeatherDisplay:10.37,2013-10-16 20:02:00,
2013-10-16 16:07:00,63.5,55.1,29.94,SSW,213,2.1,6.0,74,0.00,CLR,,0.01,135.6,WeatherDisplay:10.37,2013-10-16 20:07:00,
2013-10-16 16:12:00,63.3,54.9,29.94,SSW,194,3.8,6.9,74,0.00,CLR,,0.01,128.8,WeatherDisplay:10.37,2013-10-16 20:12:00,
2013-10-16 16:17:00,63.2,54.8,29.94,South,188,4.9,5.8,74,0.00,CLR,,0.01,146.9,WeatherDisplay:10.37,2013-10-16 20:17:00,
2013-10-16 16:22:00,63.2,54.8,29.94,SSW,205,2.1,5.0,74,0.00,CLR,,0.01,141.3,WeatherDisplay:10.37,2013-10-16 20:22:00,
2013-10-16 16:27:00,63.2,54.4,29.94,SSW,197,2.3,4.0,73,0.00,CLR,,0.01,170.6,WeatherDisplay:10.37,2013-10-16 20:27:00,
2013-10-16 16:32:00,63.2,54.8,29.94,South,189,1.1,3.5,74,0.00,CLR,,0.01,133.3,WeatherDisplay:10.37,2013-10-16 20:32:00,
2013-10-16 16:37:00,63.2,54.8,29.93,South,185,1.0,3.5,74,0.00,CLR,,0.01,105.1,WeatherDisplay:10.37,2013-10-16 20:37:00,
2013-10-16 16:42:00,63.1,54.7,29.93,SSW,198,1.8,5.8,74,0.00,CLR,,0.01,118.7,WeatherDisplay:10.37,2013-10-16 20:42:00,
2013-10-16 16:47:00,63.0,54.6,29.93,South,186,2.7,9.2,74,0.00,CLR,,0.01,144.6,WeatherDisplay:10.37,2013-10-16 20:47:00,
2013-10-16 16:52:00,63.0,54.2,29.93,SSW,196,3.9,6.9,73,0.00,CLR,,0.01,105.1,WeatherDisplay:10.37,2013-10-16 20:52:00,
2013-10-16 16:57:00,62.8,54.0,29.93,SSW,203,4.8,6.9,73,0.00,CLR,,0.01,105.1,WeatherDisplay:10.37,2013-10-16 20:57:00,
2013-10-16 17:03:00,62.6,53.8,29.93,SW,222,2.5,4.6,73,0.00,CLR,,0.01,79.1,WeatherDisplay:10.37,2013-10-16 21:03:00,
2013-10-16 17:08:00,62.3,53.9,29.93,SSW,202,3.9,5.8,74,0.00,CLR,,0.01,85.9,WeatherDisplay:10.37,2013-10-16 21:08:00,
2013-10-16 17:13:00,62.2,54.2,29.93,SSW,206,2.8,3.5,75,0.00,CLR,,0.01,81.4,WeatherDisplay:10.37,2013-10-16 21:13:00,
2013-10-16 17:18:00,62.1,54.1,29.93,South,191,3.7,10.4,75,0.00,CLR,,0.01,53.1,WeatherDisplay:10.37,2013-10-16 21:18:00,
2013-10-16 17:23:00,61.9,53.9,29.93,SSW,194,2.2,5.8,75,0.00,CLR,,0.01,41.8,WeatherDisplay:10.37,2013-10-16 21:23:00,
2013-10-16 17:28:00,61.8,53.8,29.93,SSW,201,3.6,4.6,75,0.00,CLR,,0.01,29.4,WeatherDisplay:10.37,2013-10-16 21:28:00,
2013-10-16 17:33:00,61.6,53.6,29.93,South,190,4.9,4.9,75,0.00,CLR,,0.01,28.3,WeatherDisplay:10.37,2013-10-16 21:33:00,
2013-10-16 17:38:00,61.6,53.6,29.93,South,188,2.6,8.0,75,0.00,CLR,,0.01,21.5,WeatherDisplay:10.37,2013-10-16 21:38:00,
2013-10-16 17:43:00,61.5,53.9,29.93,SSW,192,1.3,3.5,76,0.00,CLR,,0.01,18.1,WeatherDisplay:10.37,2013-10-16 21:43:00,
2013-10-16 17:48:00,61.5,53.5,29.93,SSW,192,0.9,4.6,75,0.00,CLR,,0.01,15.8,WeatherDisplay:10.37,2013-10-16 21:48:00,
2013-10-16 17:53:00,61.4,53.8,29.93,South,189,1.6,3.5,76,0.00,CLR,,0.01,13.6,WeatherDisplay:10.37,2013-10-16 21:53:00,
2013-10-16 17:58:00,61.4,53.8,29.93,SSW,192,2.9,4.6,76,0.00,CLR,,0.01,12.4,WeatherDisplay:10.37,2013-10-16 21:58:00,
2013-10-16 18:03:00,61.3,54.0,29.93,South,190,1.2,3.5,77,0.00,CLR,,0.01,5.7,WeatherDisplay:10.37,2013-10-16 22:03:00,
2013-10-16 18:08:00,61.2,53.9,29.92,SSW,192,2.7,4.6,77,0.00,CLR,,0.01,0.0,WeatherDisplay:10.37,2013-10-16 22:08:00,
2013-10-16 18:13:00,61.1,53.8,29.92,South,188,1.3,5.8,77,0.00,CLR,,0.01,0.0,WeatherDisplay:10.37,2013-10-16 22:13:00,
2013-10-16 18:18:00,61.1,53.8,29.91,SSW,194,3.4,5.8,77,0.00,CLR,,0.01,0.0,WeatherDisplay:10.37,2013-10-16 22:18:00,
2013-10-16 18:23:00,61.0,54.1,29.92,South,183,2.5,4.6,78,0.00,CLR,,0.01,0.0,WeatherDisplay:10.37,2013-10-16 22:23:00,
2013-10-16 18:28:00,60.9,54.0,29.92,South,186,1.1,3.0,78,0.00,CLR,,0.01,0.0,WeatherDisplay:10.37,2013-10-16 22:28:00,
2013-10-16 18:33:00,60.9,54.0,29.92,South,190,3.2,5.8,78,0.00,CLR,,0.01,0.0,WeatherDisplay:10.37,2013-10-16 22:33:00,
2013-10-16 18:38:00,60.8,54.2,29.92,SSW,192,1.1,2.3,79,0.00,CLR,,0.01,0.0,WeatherDisplay:10.37,2013-10-16 22:38:00,
2013-10-16 18:43:00,60.8,54.2,29.93,SSW,196,2.1,4.6,79,0.00,CLR,,0.01,0.0,WeatherDisplay:10.37,2013-10-16 22:43:00,
2013-10-16 18:48:00,60.8,54.2,29.92,SSW,195,2.4,4.6,79,0.00,CLR,,0.01,0.0,WeatherDisplay:10.37,2013-10-16 22:48:00,
2013-10-16 18:53:00,60.7,54.1,29.93,SSW,194,0.6,3.5,79,0.00,CLR,,0.01,0.0,WeatherDisplay:10.37,2013-10-16 22:53:00,
2013-10-16 18:58:00,60.7,54.1,29.92,SSW,192,1.5,11.5,79,0.00,CLR,,0.01,0.0,WeatherDisplay:10.37,2013-10-16 22:58:00,
2013-10-16 19:03:00,60.6,54.4,29.92,South,184,2.9,4.6,80,0.00,CLR,,0.01,0.0,WeatherDisplay:10.37,2013-10-16 23:03:00,
2013-10-16 19:08:00,60.5,54.3,29.92,WSW,256,0.5,2.3,80,0.00,CLR,,0.01,0.0,WeatherDisplay:10.37,2013-10-16 23:08:00,
2013-10-16 19:13:00,60.5,54.3,29.92,SSW,206,2.1,3.5,80,0.00,CLR,,0.01,0.0,WeatherDisplay:10.37,2013-10-16 23:13:00,
2013-10-16 19:18:00,60.4,54.2,29.92,South,169,2.5,3.5,80,0.00,CLR,,0.01,0.0,WeatherDisplay:10.37,2013-10-16 23:18:00,
2013-10-16 19:23:00,60.4,54.2,29.92,South,175,0.3,4.6,80,0.00,CLR,,0.01,0.0,WeatherDisplay:10.37,2013-10-16 23:23:00,
2013-10-16 19:28:00,60.3,54.4,29.91,SE,136,2.9,5.8,81,0.00,CLR,,0.01,0.0,WeatherDisplay:10.37,2013-10-16 23:28:00,
2013-10-16 19:33:00,60.2,54.3,29.91,SE,128,2.0,5.8,81,0.00,CLR,,0.01,0.0,WeatherDisplay:10.37,2013-10-16 23:33:00,
2013-10-16 19:38:00,60.1,54.2,29.91,South,186,1.7,5.0,81,0.00,CLR,,0.01,0.0,WeatherDisplay:10.37,2013-10-16 23:38:00,
2013-10-16 19:43:00,60.0,54.2,29.91,SSW,193,4.3,11.0,81,0.00,CLR,,0.01,0.0,WeatherDisplay:10.37,2013-10-16 23:43:00,
2013-10-16 19:49:00,60.0,54.2,29.90,SE,126,1.2,3.5,81,0.00,CLR,,0.01,0.0,WeatherDisplay:10.37,2013-10-16 23:49:00,
2013-10-16 19:54:00,60.0,54.2,29.90,South,186,2.0,11.5,81,0.00,CLR,,0.01,0.0,WeatherDisplay:10.37,2013-10-16 23:54:00,
2013-10-16 19:59:00,60.0,54.5,29.90,South,184,0.9,5.8,82,0.00,CLR,,0.01,0.0,WeatherDisplay:10.37,2013-10-16 23:59:00,
2013-10-16 20:04:00,59.9,54.4,29.91,South,188,3.4,4.6,82,0.00,CLR,,0.01,0.0,WeatherDisplay:10.37,2013-10-17 00:04:00,
2013-10-16 20:09:00,60.0,54.5,29.91,South,188,1.8,5.8,82,0.00,CLR,,0.01,0.0,WeatherDisplay:10.37,2013-10-17 00:09:00,
2013-10-16 20:14:00,60.0,54.5,29.91,South,187,2.2,3.5,82,0.00,CLR,,0.01,0.0,WeatherDisplay:10.37,2013-10-17 00:14:00,
2013-10-16 20:19:00,60.0,54.5,29.90,South,186,3.3,5.8,82,0.00,CLR,,0.01,0.0,WeatherDisplay:10.37,2013-10-17 00:19:00,
2013-10-16 20:24:00,60.0,54.5,29.91,South,186,0.0,1.2,82,0.00,CLR,,0.01,0.0,WeatherDisplay:10.37,2013-10-17 00:24:00,
2013-10-16 20:29:00,59.9,54.4,29.92,South,186,0.1,1.2,82,0.00,CLR,,0.01,0.0,WeatherDisplay:10.37,2013-10-17 00:29:00,
2013-10-16 20:34:00,59.8,54.3,29.92,South,186,2.6,3.5,82,0.00,CLR,,0.01,0.0,WeatherDisplay:10.37,2013-10-17 00:34:00,
2013-10-16 20:39:00,59.7,54.5,29.92,South,186,0.5,1.2,83,0.00,CLR,,0.01,0.0,WeatherDisplay:10.37,2013-10-17 00:39:00,
2013-10-16 20:44:00,59.6,54.4,29.91,South,186,2.5,4.6,83,0.00,CLR,,0.01,0.0,WeatherDisplay:10.37,2013-10-17 00:44:00,
2013-10-16 20:49:00,59.5,54.3,29.92,South,186,0.0,1.2,83,0.00,CLR,,0.01,0.0,WeatherDisplay:10.37,2013-10-17 00:49:00,
2013-10-16 20:54:00,59.4,54.2,29.91,South,186,0.9,4.0,83,0.00,CLR,,0.01,0.0,WeatherDisplay:10.37,2013-10-17 00:54:00,
2013-10-16 20:59:00,59.4,54.2,29.91,South,186,0.6,3.5,83,0.00,CLR,,0.01,0.0,WeatherDisplay:10.37,2013-10-17 00:59:00,
2013-10-16 21:04:00,59.3,54.1,29.91,South,186,1.1,4.0,83,0.00,CLR,,0.01,0.0,WeatherDisplay:10.37,2013-10-17 01:04:00,
2013-10-16 21:09:00,59.2,54.4,29.91,South,184,3.8,6.9,84,0.00,CLR,,0.01,0.0,WeatherDisplay:10.37,2013-10-17 01:09:00,
2013-10-16 21:14:00,59.2,54.4,29.90,South,180,3.3,8.1,84,0.00,CLR,,0.01,0.0,WeatherDisplay:10.37,2013-10-17 01:14:00,
2013-10-16 21:19:00,59.2,54.4,29.91,South,183,0.9,2.3,84,0.00,CLR,,0.01,0.0,WeatherDisplay:10.37,2013-10-17 01:19:00,
2013-10-16 21:24:00,59.2,54.4,29.90,South,186,2.4,5.8,84,0.00,CLR,,0.01,0.0,WeatherDisplay:10.37,2013-10-17 01:24:00,
2013-10-16 21:29:00,59.2,54.4,29.90,South,188,1.2,4.0,84,0.00,CLR,,0.01,0.0,WeatherDisplay:10.37,2013-10-17 01:29:00,
2013-10-16 21:34:00,59.2,54.4,29.90,South,186,5.3,8.1,84,0.00,CLR,,0.01,0.0,WeatherDisplay:10.37,2013-10-17 01:34:00,
2013-10-16 21:39:00,59.2,54.4,29.90,South,187,1.3,4.6,84,0.00,CLR,,0.01,0.0,WeatherDisplay:10.37,2013-10-17 01:39:00,
2013-10-16 21:44:00,59.2,54.4,29.90,South,188,0.5,4.6,84,0.00,CLR,,0.01,0.0,WeatherDisplay:10.37,2013-10-17 01:44:00,
2013-10-16 21:49:00,59.3,54.5,29.90,South,186,0.2,3.5,84,0.00,CLR,,0.01,0.0,WeatherDisplay:10.37,2013-10-17 01:49:00,
2013-10-16 21:54:00,59.3,54.5,29.90,South,181,2.3,6.0,84,0.00,CLR,,0.01,0.0,WeatherDisplay:10.37,2013-10-17 01:54:00,
2013-10-16 21:59:00,59.4,54.6,29.89,South,190,1.0,6.9,84,0.00,CLR,,0.01,0.0,WeatherDisplay:10.37,2013-10-17 01:59:00,
2013-10-16 22:04:00,59.4,54.6,29.89,South,178,5.6,9.2,84,0.00,CLR,,0.01,0.0,WeatherDisplay:10.37,2013-10-17 02:04:00,
2013-10-16 22:09:00,59.4,54.6,29.89,South,185,4.7,7.0,84,0.00,CLR,,0.01,0.0,WeatherDisplay:10.37,2013-10-17 02:09:00,
2013-10-16 22:14:00,59.4,54.6,29.89,South,190,3.5,10.4,84,0.00,CLR,,0.01,0.0,WeatherDisplay:10.37,2013-10-17 02:14:00,
2013-10-16 22:19:00,59.5,54.7,29.89,South,190,1.7,4.0,84,0.00,CLR,,0.01,0.0,WeatherDisplay:10.37,2013-10-17 02:19:00,
2013-10-16 22:24:00,59.5,54.7,29.89,South,187,3.5,6.9,84,0.00,CLR,,0.01,0.0,WeatherDisplay:10.37,2013-10-17 02:24:00,
2013-10-16 22:29:00,59.5,54.7,29.89,South,184,2.4,4.6,84,0.00,CLR,,0.01,0.0,WeatherDisplay:10.37,2013-10-17 02:29:00,
2013-10-16 22:34:00,59.5,54.7,29.89,South,187,3.2,10.4,84,0.00,CLR,,0.01,0.0,WeatherDisplay:10.37,2013-10-17 02:34:00,
2013-10-16 22:39:00,59.5,54.7,29.89,South,187,0.1,1.2,84,0.00,CLR,,0.01,0.0,WeatherDisplay:10.37,2013-10-17 02:39:00,
2013-10-16 22:44:00,59.5,54.7,29.89,South,190,4.1,6.9,84,0.00,CLR,,0.01,0.0,WeatherDisplay:10.37,2013-10-17 02:44:00,
2013-10-16 22:49:00,59.5,54.7,29.88,South,186,1.5,8.1,84,0.00,CLR,,0.01,0.0,WeatherDisplay:10.37,2013-10-17 02:49:00,
2013-10-16 22:54:00,59.5,54.7,29.88,SSW,196,2.4,10.4,84,0.00,CLR,,0.01,0.0,WeatherDisplay:10.37,2013-10-17 02:54:00,
2013-10-16 22:59:00,59.6,54.8,29.88,South,181,2.5,4.6,84,0.00,CLR,,0.01,0.0,WeatherDisplay:10.37,2013-10-17 02:59:00,
2013-10-16 23:04:00,59.6,54.8,29.88,South,188,0.9,3.5,84,0.00,CLR,,0.01,0.0,WeatherDisplay:10.37,2013-10-17 03:04:00,
2013-10-16 23:09:00,59.6,54.8,29.88,South,185,3.8,9.2,84,0.00,CLR,,0.01,0.0,WeatherDisplay:10.37,2013-10-17 03:09:00,
2013-10-16 23:14:00,59.6,54.8,29.88,South,172,1.6,4.6,84,0.00,CLR,,0.01,0.0,WeatherDisplay:10.37,2013-10-17 03:14:00,
2013-10-16 23:19:00,59.6,55.1,29.88,South,176,0.0,4.6,85,0.00,CLR,,0.01,0.0,WeatherDisplay:10.37,2013-10-17 03:19:00,
2013-10-16 23:24:00,59.6,55.1,29.88,South,186,3.2,4.6,85,0.00,CLR,,0.01,0.0,WeatherDisplay:10.37,2013-10-17 03:24:00,
2013-10-16 23:29:00,59.7,55.2,29.88,South,186,1.9,4.0,85,0.00,CLR,,0.01,0.0,WeatherDisplay:10.37,2013-10-17 03:29:00,
2013-10-16 23:34:00,59.7,55.2,29.87,South,188,3.3,10.4,85,0.00,CLR,,0.01,0.0,WeatherDisplay:10.37,2013-10-17 03:34:00,
2013-10-16 23:39:00,59.8,55.3,29.87,South,190,4.5,4.6,85,0.00,CLR,,0.01,0.0,WeatherDisplay:10.37,2013-10-17 03:39:00,
2013-10-16 23:45:00,60.0,55.5,29.87,SSW,195,4.3,6.9,85,0.00,CLR,,0.01,0.0,WeatherDisplay:10.37,2013-10-17 03:45:00,
2013-10-16 23:50:00,60.1,55.2,29.87,South,171,4.6,6.9,84,0.00,CLR,,0.01,0.0,WeatherDisplay:10.37,2013-10-17 03:50:00,
2013-10-16 23:55:00,60.2,55.3,29.87,South,181,4.4,7.0,84,0.00,CLR,,0.01,0.0,WeatherDisplay:10.37,2013-10-17 03:55:00,